Date,TemperatureHighF,TemperatureAvgF,TemperatureLowF,DewpointHighF,DewpointAvgF,DewpointLowF,HumidityHigh,HumidityAvg,HumidityLow,PressureMaxIn,PressureMinIn,WindSpeedMaxMPH,WindSpeedAvgMPH,GustSpeedMaxMPH,PrecipitationSumIn
2013-3-1,40.1,35.1,31.6,33.0,31.2,26.0,96,86,72,29.74,29.57,10,2,16,0.00
2013-3-2,34.0,29.6,24.8,26.0,23.6,20.0,85,78,69,29.76,29.69,10,4,16,0.00
2013-3-3,31.2,25.3,21.3,23.0,19.4,16.0,90,78,69,29.75,29.67,17,4,21,0.00
2013-3-4,29.6,27.5,24.8,25.0,22.0,20.0,92,80,73,29.89,29.73,17,5,32,0.00
2013-3-5,40.4,32.7,28.2,28.0,25.2,22.0,86,74,61,30.05,29.89,10,2,14,0.00
2013-3-6,42.0,34.9,28.1,33.0,27.9,25.0,90,76,63,30.09,30.01,14,2,22,0.00
2013-3-7,37.3,33.6,29.5,31.0,27.1,23.0,98,78,58,30.13,30.07,7,1,21,0.16
2013-3-8,41.4,32.6,28.5,34.0,29.3,26.0,98,89,69,30.27,30.07,4,0,11,0.22
2013-3-9,50.2,35.5,24.0,28.0,25.1,22.0,92,69,40,30.33,30.25,9,1,11,0.00
2013-3-10,52.2,38.0,20.6,34.0,26.7,19.0,96,67,39,30.33,30.16,11,2,18,0.00
2013-3-11,48.3,41.7,35.5,43.0,36.1,32.0,89,81,69,30.20,29.94,14,3,24,0.00
2013-3-12,52.0,47.0,38.4,52.0,44.6,33.0,99,91,80,29.95,29.64,13,4,24,0.74
2013-3-13,44.4,37.5,32.4,32.0,28.2,23.0,90,71,44,29.84,29.75,10,2,17,0.00
2013-3-14,32.2,26.6,22.7,25.0,14.7,8.0,76,61,51,29.90,29.80,17,5,32,0.00
2013-3-15,37.2,29.2,18.8,31.0,19.7,11.0,93,68,52,29.93,29.63,8,2,19,0.02
2013-3-16,34.8,29.1,22.1,25.0,17.7,14.0,81,63,43,29.89,29.73,5,1,11,0.00
2013-3-17,33.3,26.9,19.2,17.0,11.4,8.0,74,54,37,30.31,29.90,13,3,23,0.00
2013-3-18,36.5,26.1,13.5,26.0,11.5,5.0,95,58,31,30.43,30.07,5,1,15,0.17
2013-3-19,35.1,30.3,26.3,33.0,29.2,25.0,98,95,90,30.06,29.67,8,0,14,0.37
2013-3-20,36.3,27.6,17.6,25.0,21.0,16.0,97,78,52,29.79,29.73,12,2,22,0.01
2013-3-21,35.4,26.0,13.4,19.0,14.2,10.0,94,65,37,29.79,29.62,8,1,12,0.00
2013-3-22,35.0,27.9,18.3,28.0,20.3,13.0,85,74,63,29.80,29.66,13,2,18,0.00
2013-3-23,38.4,33.6,29.3,26.0,23.5,21.0,87,68,52,29.87,29.76,22,5,30,0.00
2013-3-24,43.7,35.9,30.3,26.0,23.9,23.0,74,63,47,29.87,29.72,6,1,15,0.00
2013-3-25,44.2,36.3,29.1,30.0,26.5,23.0,80,68,54,29.75,29.48,5,0,15,0.00
2013-3-26,45.8,38.8,31.3,30.0,26.1,21.0,85,62,38,29.82,29.58,6,0,14,0.00
2013-3-27,49.8,40.7,28.9,32.0,28.5,22.0,77,63,45,29.91,29.80,15,3,21,0.00
2013-3-28,47.0,41.0,36.0,35.0,32.9,30.0,87,74,60,30.07,29.91,13,3,15,0.00
2013-3-29,48.6,42.7,37.0,34.0,31.9,30.0,78,66,52,30.09,30.03,12,3,20,0.00
2013-3-30,52.7,43.2,28.6,32.0,26.8,22.0,92,56,32,30.11,30.02,14,2,21,0.00
2013-3-31,55.1,41.4,25.3,40.0,29.3,22.0,91,65,38,30.08,29.68,13,2,23,0.07